Time;durP1;ratioP1;P1;durP2;ratioP2;P2;SDS_P1;SDS_P2;PMS_P1;PMS_P2;Temp;Humidity;BMP_temperature;BMP_pressure;BME280_temperature;BME280_humidity;BME280_pressure;Samples;Min_cycle;Max_cycle;Signal;HPM_P1;HPM_P2
2023/12/30 00:01:59;;;;;;;0.45;0.40;;;22.20;46.50;;;;;;5110823;28;20027;-44
2023/12/30 00:04:25;;;;;;;0.43;0.40;;;22.30;46.30;;;;;;5108070;28;20570;-39
2023/12/30 00:06:51;;;;;;;0.40;0.40;;;22.40;46.20;;;;;;5107697;28;20204;-40
2023/12/30 00:09:17;;;;;;;5.95;0.50;;;22.40;46.30;;;;;;5114233;28;20031;-39
2023/12/30 00:11:44;;;;;;;0.75;0.43;;;22.50;45.90;;;;;;5110473;28;20076;-40
2023/12/30 00:14:10;;;;;;;5.03;0.88;;;22.50;45.80;;;;;;5106496;28;20055;-41
2023/12/30 00:16:39;;;;;;;1.23;0.43;;;22.60;45.70;;;;;;5107651;28;20646;-41
2023/12/30 00:19:05;;;;;;;2.05;0.40;;;22.70;45.50;;;;;;5116053;28;20046;-41
2023/12/30 00:21:31;;;;;;;0.40;0.40;;;22.70;45.70;;;;;;5109089;28;20035;-41
2023/12/30 00:23:58;;;;;;;0.77;0.40;;;22.80;45.80;;;;;;5110069;28;20067;-41
2023/12/30 00:26:25;;;;;;;0.50;0.50;;;22.90;45.70;;;;;;5111618;28;20030;-40
2023/12/30 00:28:51;;;;;;;0.80;0.50;;;23.00;46.30;;;;;;5108667;27;20028;-40
2023/12/30 00:31:29;;;;;;;0.93;0.32;;;23.00;45.60;;;;;;5110001;28;20118;-41
2023/12/30 00:33:59;;;;;;;0.60;0.40;;;23.10;45.40;;;;;;5117259;27;20058;-42
2023/12/30 00:36:26;;;;;;;0.73;0.40;;;23.10;45.50;;;;;;5114712;28;20440;-42
2023/12/30 00:38:55;;;;;;;0.80;0.40;;;23.20;45.30;;;;;;5106825;28;20034;-40
2023/12/30 00:41:22;;;;;;;0.50;0.50;;;23.30;45.50;;;;;;5105290;28;20036;-41
2023/12/30 00:43:48;;;;;;;0.95;0.40;;;23.40;45.50;;;;;;5109621;28;20559;-41
2023/12/30 00:46:14;;;;;;;0.57;0.40;;;23.40;45.40;;;;;;5109765;27;20032;-42
2023/12/30 00:48:41;;;;;;;1.35;0.40;;;23.40;45.40;;;;;;5111029;27;20032;-41
2023/12/30 00:51:07;;;;;;;0.52;0.40;;;23.50;45.30;;;;;;5108494;28;20043;-42
2023/12/30 00:53:33;;;;;;;0.50;0.40;;;23.60;45.20;;;;;;5111519;27;20031;-41
2023/12/30 00:55:59;;;;;;;0.50;0.45;;;23.60;45.20;;;;;;5110536;28;20080;-43
2023/12/30 00:58:25;;;;;;;0.52;0.50;;;23.70;45.20;;;;;;5105912;27;20032;-41
2023/12/30 01:00:51;;;;;;;0.50;0.30;;;23.70;45.20;;;;;;5106276;28;20028;-40
2023/12/30 01:03:18;;;;;;;0.77;0.50;;;23.80;45.10;;;;;;5106913;27;20079;-42
2023/12/30 01:05:44;;;;;;;1.65;0.40;;;23.80;45.00;;;;;;5113717;28;20024;-42
2023/12/30 01:08:11;;;;;;;0.47;0.47;;;23.90;44.90;;;;;;5114155;28;20062;-43
2023/12/30 01:10:37;;;;;;;0.30;0.30;;;24.00;44.60;;;;;;5108189;28;20028;-39
2023/12/30 01:13:05;;;;;;;0.50;0.40;;;24.00;44.80;;;;;;5119724;28;20625;-42
2023/12/30 01:15:32;;;;;;;0.47;0.40;;;24.00;44.90;;;;;;5107958;28;20028;-40
2023/12/30 01:17:58;;;;;;;0.50;0.40;;;24.10;44.70;;;;;;5113084;28;20039;-40
2023/12/30 01:20:24;;;;;;;0.68;0.50;;;24.10;44.70;;;;;;5109594;28;20028;-41
2023/12/30 01:22:50;;;;;;;0.65;0.40;;;24.20;44.40;;;;;;5111324;28;20040;-41
2023/12/30 01:25:16;;;;;;;0.52;0.40;;;24.20;44.50;;;;;;5110157;28;20056;-42
2023/12/30 01:27:42;;;;;;;0.32;0.32;;;24.30;44.20;;;;;;5111331;28;20031;-41
2023/12/30 01:30:09;;;;;;;0.30;0.30;;;24.30;44.50;;;;;;5117533;28;20031;-42
2023/12/30 01:32:36;;;;;;;0.43;0.40;;;24.30;44.50;;;;;;5109465;28;20027;-40
2023/12/30 01:35:03;;;;;;;0.40;0.40;;;24.40;44.40;;;;;;5116437;27;20031;-41
2023/12/30 01:37:30;;;;;;;0.40;0.32;;;24.40;44.50;;;;;;5117593;27;20028;-40
2023/12/30 01:39:56;;;;;;;0.65;0.45;;;24.40;44.40;;;;;;5108656;28;20032;-42
2023/12/30 01:42:22;;;;;;;0.43;0.38;;;24.50;44.50;;;;;;5116703;28;20075;-40
2023/12/30 01:44:48;;;;;;;0.50;0.40;;;24.50;44.80;;;;;;5112253;28;20024;-42
2023/12/30 01:47:14;;;;;;;0.40;0.40;;;24.40;44.80;;;;;;5108190;28;20032;-41
2023/12/30 01:49:40;;;;;;;0.43;0.40;;;24.40;44.40;;;;;;5088461;28;20048;-40
2023/12/30 01:52:07;;;;;;;0.50;0.50;;;24.30;44.60;;;;;;5111764;28;20032;-41
2023/12/30 01:54:33;;;;;;;0.70;0.45;;;24.30;44.50;;;;;;5109918;28;20046;-41
2023/12/30 01:56:59;;;;;;;0.55;0.50;;;24.20;44.70;;;;;;5090382;28;20042;-41
2023/12/30 01:59:25;;;;;;;0.85;0.50;;;24.10;44.90;;;;;;5087601;28;20032;-41
2023/12/30 02:01:51;;;;;;;0.65;0.57;;;24.00;45.10;;;;;;5114238;28;20032;-42
2023/12/30 02:04:17;;;;;;;0.85;0.50;;;23.90;45.00;;;;;;5111750;28;20130;-41
2023/12/30 02:06:44;;;;;;;0.60;0.50;;;23.90;44.90;;;;;;5103991;28;20020;-41
2023/12/30 02:09:10;;;;;;;0.68;0.50;;;23.80;44.70;;;;;;5110905;28;20035;-41
2023/12/30 02:11:36;;;;;;;0.47;0.47;;;23.80;44.60;;;;;;5112217;28;20019;-40
2023/12/30 02:14:02;;;;;;;0.70;0.60;;;23.70;44.80;;;;;;5095217;28;20062;-43
2023/12/30 02:16:28;;;;;;;0.60;0.50;;;23.60;44.80;;;;;;5093532;28;20020;-39
2023/12/30 02:18:55;;;;;;;0.60;0.47;;;23.60;44.90;;;;;;5109569;28;20031;-40
2023/12/30 02:21:21;;;;;;;1.38;0.50;;;23.60;44.80;;;;;;5114388;28;20043;-42
2023/12/30 02:23:53;;;;;;;0.73;0.50;;;23.50;44.80;;;;;;5108757;28;20102;-42
2023/12/30 02:26:20;;;;;;;0.88;0.70;;;23.50;44.70;;;;;;5113818;28;20052;-42
2023/12/30 02:28:46;;;;;;;0.97;0.50;;;23.40;45.10;;;;;;5107781;28;20039;-42
2023/12/30 02:31:12;;;;;;;0.82;0.45;;;23.30;45.40;;;;;;5107031;28;20275;-41
2023/12/30 02:33:38;;;;;;;0.40;0.40;;;23.30;45.50;;;;;;5104542;28;20022;-41
2023/12/30 02:36:06;;;;;;;0.68;0.52;;;23.20;45.60;;;;;;5105891;28;20028;-43
2023/12/30 02:38:32;;;;;;;0.70;0.43;;;23.20;45.50;;;;;;5110675;28;20032;-42
2023/12/30 02:40:58;;;;;;;0.55;0.50;;;23.10;45.20;;;;;;5116342;27;20047;-41
2023/12/30 02:43:25;;;;;;;0.60;0.55;;;23.10;45.30;;;;;;5114883;28;20043;-42
2023/12/30 02:45:51;;;;;;;2.60;0.40;;;23.00;45.40;;;;;;5128403;27;20038;-41
2023/12/30 02:48:17;;;;;;;0.50;0.50;;;22.90;45.50;;;;;;5108558;27;20044;-41
2023/12/30 02:50:43;;;;;;;1.03;0.60;;;22.90;45.60;;;;;;5109642;28;20052;-41
2023/12/30 02:53:10;;;;;;;0.30;0.30;;;22.90;45.30;;;;;;5112300;28;20020;-40
2023/12/30 02:55:36;;;;;;;0.40;0.40;;;22.80;45.50;;;;;;5113625;28;20283;-40
2023/12/30 02:58:03;;;;;;;0.47;0.40;;;22.90;45.60;;;;;;5108033;28;20028;-40
2023/12/30 03:00:29;;;;;;;2.20;0.50;;;22.80;45.80;;;;;;5110155;28;20035;-40
2023/12/30 03:02:55;;;;;;;0.70;0.30;;;22.70;45.80;;;;;;5109612;28;20044;-40
2023/12/30 03:05:21;;;;;;;0.47;0.45;;;22.70;45.90;;;;;;5108832;28;20051;-40
2023/12/30 03:07:47;;;;;;;0.80;0.43;;;22.70;46.00;;;;;;5109969;28;20111;-41
2023/12/30 03:10:14;;;;;;;0.40;0.40;;;22.80;45.90;;;;;;5113371;28;20027;-40
2023/12/30 03:12:40;;;;;;;0.63;0.40;;;22.70;45.50;;;;;;5112067;28;20559;-40
2023/12/30 03:15:07;;;;;;;0.57;0.40;;;22.70;45.60;;;;;;5114974;28;20028;-42
2023/12/30 03:17:33;;;;;;;0.47;0.40;;;22.60;45.70;;;;;;5110599;28;20024;-41
2023/12/30 03:19:59;;;;;;;1.10;0.60;;;22.60;45.80;;;;;;5108887;28;20047;-40
2023/12/30 03:22:26;;;;;;;1.65;0.52;;;22.50;46.00;;;;;;5114620;28;20061;-41
2023/12/30 03:24:52;;;;;;;2.13;0.40;;;22.60;45.90;;;;;;5108297;28;20043;-41
2023/12/30 03:27:18;;;;;;;0.40;0.30;;;22.50;45.80;;;;;;5112841;28;20035;-41
2023/12/30 03:29:44;;;;;;;0.85;0.57;;;22.50;45.90;;;;;;5118293;28;20024;-41
2023/12/30 03:32:10;;;;;;;0.57;0.50;;;22.40;46.00;;;;;;5113161;28;20024;-41
2023/12/30 03:34:37;;;;;;;0.57;0.50;;;22.40;46.10;;;;;;5110649;28;20034;-42
2023/12/30 03:37:03;;;;;;;0.77;0.57;;;22.40;46.20;;;;;;5109625;28;20036;-41
2023/12/30 03:39:29;;;;;;;1.70;0.55;;;22.40;46.10;;;;;;5111557;28;20032;-41
2023/12/30 03:41:56;;;;;;;0.93;0.60;;;22.40;45.80;;;;;;5116119;28;20057;-41
2023/12/30 03:44:22;;;;;;;0.80;0.60;;;22.30;46.00;;;;;;5112643;28;20040;-40
2023/12/30 03:46:49;;;;;;;0.77;0.50;;;22.30;46.20;;;;;;5115081;28;20028;-40
2023/12/30 03:49:15;;;;;;;1.27;0.47;;;22.30;46.20;;;;;;5122015;27;20070;-41
2023/12/30 03:51:41;;;;;;;0.40;0.40;;;22.30;46.10;;;;;;5110851;28;20059;-41
2023/12/30 03:54:07;;;;;;;0.82;0.50;;;22.40;46.10;;;;;;5110431;28;20023;-42
2023/12/30 03:56:37;;;;;;;2.40;0.50;;;22.40;45.90;;;;;;5115295;27;20059;-42
2023/12/30 03:59:03;;;;;;;1.15;0.50;;;22.40;46.00;;;;;;5113889;27;20063;-41
2023/12/30 04:01:29;;;;;;;1.95;0.60;;;22.40;46.20;;;;;;5117306;28;20024;-41
2023/12/30 04:03:56;;;;;;;2.28;0.60;;;22.30;46.20;;;;;;5119049;27;20071;-42
2023/12/30 04:06:22;;;;;;;1.27;0.50;;;22.20;46.40;;;;;;5110611;28;20016;-41
2023/12/30 04:08:48;;;;;;;0.93;0.40;;;22.20;46.30;;;;;;5114093;28;20028;-41
2023/12/30 04:11:14;;;;;;;0.68;0.60;;;22.20;46.20;;;;;;5110818;28;20024;-43
2023/12/30 04:13:40;;;;;;;0.95;0.60;;;22.20;46.20;;;;;;5109402;28;20176;-40
2023/12/30 04:16:08;;;;;;;0.90;0.50;;;22.10;46.30;;;;;;5110869;28;20019;-43
2023/12/30 04:18:34;;;;;;;0.60;0.50;;;22.10;46.50;;;;;;5110664;28;20034;-42
2023/12/30 04:21:00;;;;;;;1.20;0.40;;;22.00;46.50;;;;;;5110159;28;20035;-41
2023/12/30 04:23:26;;;;;;;0.75;0.55;;;22.00;46.60;;;;;;5112347;28;20119;-42
2023/12/30 04:25:52;;;;;;;0.50;0.40;;;22.00;46.30;;;;;;5116251;28;20027;-43
2023/12/30 04:28:18;;;;;;;0.50;0.50;;;22.00;46.40;;;;;;5114985;28;20061;-40
2023/12/30 04:30:45;;;;;;;0.63;0.40;;;22.00;46.50;;;;;;5125812;27;20045;-41
2023/12/30 04:33:11;;;;;;;0.47;0.47;;;22.00;46.60;;;;;;5115630;28;20034;-40
2023/12/30 04:35:39;;;;;;;0.40;0.40;;;21.90;46.60;;;;;;5112274;28;20020;-41
2023/12/30 04:38:05;;;;;;;0.57;0.40;;;22.00;46.60;;;;;;5109579;28;20055;-41
2023/12/30 04:40:32;;;;;;;1.30;0.40;;;22.10;46.40;;;;;;5116843;28;20024;-38
2023/12/30 04:42:58;;;;;;;0.57;0.57;;;22.20;46.10;;;;;;5116344;28;20066;-41
2023/12/30 04:45:24;;;;;;;0.43;0.43;;;22.20;46.30;;;;;;5114404;27;20058;-40
2023/12/30 04:47:53;;;;;;;0.40;0.40;;;22.10;46.40;;;;;;5121508;28;20043;-40
2023/12/30 04:50:19;;;;;;;0.50;0.50;;;22.00;46.50;;;;;;5113185;28;20511;-40
2023/12/30 04:52:45;;;;;;;0.70;0.60;;;22.00;46.60;;;;;;5119464;28;20020;-42
2023/12/30 04:55:11;;;;;;;0.50;0.30;;;21.90;46.70;;;;;;5117346;27;20023;-40
2023/12/30 04:57:38;;;;;;;0.63;0.60;;;22.00;46.40;;;;;;5117475;27;20035;-42
2023/12/30 05:00:05;;;;;;;0.60;0.40;;;21.90;46.30;;;;;;5120369;28;20034;-40
2023/12/30 05:02:31;;;;;;;0.65;0.52;;;21.90;46.60;;;;;;5120454;28;20032;-42
2023/12/30 05:04:57;;;;;;;0.50;0.40;;;21.90;46.60;;;;;;5112395;28;20043;-40
2023/12/30 05:07:23;;;;;;;0.52;0.52;;;21.80;46.60;;;;;;5111628;28;20024;-41
2023/12/30 05:09:50;;;;;;;0.45;0.45;;;21.80;46.80;;;;;;5115243;28;20071;-42
2023/12/30 05:12:16;;;;;;;0.50;0.38;;;21.80;46.50;;;;;;5109222;28;20035;-42
2023/12/30 05:14:42;;;;;;;0.52;0.40;;;21.80;46.60;;;;;;5117818;27;20066;-39
2023/12/30 05:17:08;;;;;;;1.42;0.50;;;21.80;46.70;;;;;;5116394;28;20770;-38
2023/12/30 05:19:34;;;;;;;0.60;0.50;;;21.80;46.70;;;;;;5116752;28;20115;-40
2023/12/30 05:22:00;;;;;;;1.65;0.60;;;21.80;46.50;;;;;;5113347;28;20549;-41
2023/12/30 05:24:26;;;;;;;1.27;0.70;;;21.90;46.50;;;;;;5113483;27;20036;-42
2023/12/30 05:26:52;;;;;;;0.63;0.50;;;22.00;46.50;;;;;;5113402;28;20784;-41
2023/12/30 05:29:19;;;;;;;0.88;0.65;;;22.00;46.50;;;;;;5106900;28;20090;-41
2023/12/30 05:31:45;;;;;;;0.68;0.52;;;22.00;46.50;;;;;;5110247;28;20057;-40
2023/12/30 05:34:11;;;;;;;0.47;0.47;;;21.90;46.60;;;;;;5116701;28;20072;-42
2023/12/30 05:36:38;;;;;;;1.85;0.50;;;21.90;46.80;;;;;;5115082;28;20043;-42
2023/12/30 05:39:04;;;;;;;0.55;0.55;;;21.80;46.80;;;;;;5119758;28;20020;-41
2023/12/30 05:41:30;;;;;;;0.95;0.68;;;21.80;46.90;;;;;;5117423;28;20032;-41
2023/12/30 05:43:56;;;;;;;1.75;0.57;;;21.80;46.50;;;;;;5108036;28;20048;-41
2023/12/30 05:46:22;;;;;;;0.70;0.55;;;21.80;46.60;;;;;;5109225;28;20043;-41
2023/12/30 05:48:48;;;;;;;0.60;0.52;;;21.80;46.80;;;;;;5118775;28;20024;-41
2023/12/30 05:51:14;;;;;;;1.00;0.70;;;21.70;46.80;;;;;;5112244;28;20047;-41
2023/12/30 05:53:41;;;;;;;1.42;0.63;;;21.70;47.00;;;;;;5113843;28;20821;-40
2023/12/30 05:56:07;;;;;;;1.20;0.70;;;21.70;47.10;;;;;;5119976;28;20035;-41
2023/12/30 05:58:37;;;;;;;2.35;0.60;;;21.70;46.80;;;;;;5113811;28;20047;-41
2023/12/30 06:01:04;;;;;;;1.58;0.68;;;21.70;46.80;;;;;;5120017;28;20034;-40
2023/12/30 06:03:30;;;;;;;0.63;0.50;;;21.70;46.80;;;;;;5116500;28;20043;-39
2023/12/30 06:05:56;;;;;;;1.05;0.70;;;21.80;47.00;;;;;;5113909;28;20069;-40
2023/12/30 06:08:22;;;;;;;0.85;0.60;;;21.90;46.90;;;;;;5111395;28;20036;-40
2023/12/30 06:10:51;;;;;;;0.60;0.53;;;21.80;46.90;;;;;;5114013;28;20027;-42
2023/12/30 06:13:17;;;;;;;2.67;0.70;;;21.90;46.90;;;;;;5116428;28;20028;-41
2023/12/30 06:15:49;;;;;;;0.80;0.63;;;21.80;46.80;;;;;;5108119;28;20042;-41
2023/12/30 06:18:15;;;;;;;1.85;0.70;;;21.80;46.80;;;;;;5113209;28;20091;-41
2023/12/30 06:20:44;;;;;;;1.25;0.60;;;21.80;47.00;;;;;;5113448;28;20131;-40
2023/12/30 06:23:11;;;;;;;4.25;0.70;;;21.70;47.00;;;;;;5114573;28;20050;-40
2023/12/30 06:25:37;;;;;;;1.73;0.60;;;21.60;47.10;;;;;;5120304;28;20024;-39
2023/12/30 06:28:04;;;;;;;0.88;0.50;;;21.60;47.10;;;;;;5098577;28;20070;-40
2023/12/30 06:30:32;;;;;;;0.60;0.55;;;21.70;46.90;;;;;;5113980;28;20028;-39
2023/12/30 06:33:01;;;;;;;1.30;0.75;;;21.70;46.90;;;;;;5128592;27;20123;-41
2023/12/30 06:35:27;;;;;;;1.10;0.70;;;21.60;47.00;;;;;;5115288;28;20539;-41
2023/12/30 06:37:54;;;;;;;0.73;0.70;;;21.60;47.10;;;;;;5116968;27;20042;-41
2023/12/30 06:40:20;;;;;;;0.68;0.68;;;21.50;47.30;;;;;;5111571;28;20032;-41
2023/12/30 06:42:47;;;;;;;0.70;0.68;;;21.50;47.20;;;;;;5111932;27;20098;-41
2023/12/30 06:45:13;;;;;;;0.82;0.60;;;21.60;47.30;;;;;;5113602;28;20114;-39
2023/12/30 06:47:40;;;;;;;0.50;0.50;;;21.70;47.10;;;;;;5124029;28;20082;-40
2023/12/30 06:50:06;;;;;;;;;;;21.70;47.70;;;;;;5124572;28;20044;-41
2023/12/30 06:52:33;;;;;;;0.70;0.60;;;21.70;47.20;;;;;;5123924;27;19912;-40
2023/12/30 06:54:59;;;;;;;0.70;0.60;;;21.60;47.20;;;;;;5119066;28;20041;-38
2023/12/30 06:57:26;;;;;;;0.40;0.38;;;21.60;47.30;;;;;;5121539;28;20042;-40
2023/12/30 06:59:52;;;;;;;0.70;0.68;;;21.60;47.00;;;;;;5124055;28;20034;-39
2023/12/30 07:02:18;;;;;;;1.30;0.80;;;21.60;46.90;;;;;;5097937;28;20036;-40
2023/12/30 07:04:44;;;;;;;1.02;0.73;;;21.60;47.00;;;;;;5122886;27;20057;-39
2023/12/30 07:07:10;;;;;;;0.70;0.68;;;21.60;47.20;;;;;;5114272;28;20058;-41
2023/12/30 07:09:36;;;;;;;0.65;0.50;;;21.50;47.20;;;;;;5112198;27;20727;-42
2023/12/30 07:12:03;;;;;;;0.88;0.68;;;21.50;47.20;;;;;;5119557;28;20031;-41
2023/12/30 07:14:34;;;;;;;0.50;0.50;;;21.50;47.20;;;;;;5111929;27;20027;-41
2023/12/30 07:17:00;;;;;;;1.85;0.60;;;21.60;47.20;;;;;;5113750;28;20056;-42
2023/12/30 07:19:26;;;;;;;0.63;0.63;;;21.70;47.20;;;;;;5116383;28;20052;-42
2023/12/30 07:21:53;;;;;;;0.68;0.60;;;21.60;47.20;;;;;;5118926;28;20324;-41
2023/12/30 07:24:19;;;;;;;0.70;0.67;;;21.60;47.20;;;;;;5117220;28;20123;-40
2023/12/30 07:26:45;;;;;;;0.88;0.77;;;21.50;47.20;;;;;;5112640;27;20047;-40
2023/12/30 07:29:11;;;;;;;0.70;0.70;;;21.50;47.30;;;;;;5112214;28;20036;-41
2023/12/30 07:31:39;;;;;;;0.50;0.50;;;21.50;47.10;;;;;;5108260;28;20035;-41
2023/12/30 07:34:05;;;;;;;1.20;0.80;;;21.50;47.10;;;;;;5129750;27;20035;-40
2023/12/30 07:36:31;;;;;;;0.77;0.60;;;21.50;47.20;;;;;;5112948;28;20035;-40
2023/12/30 07:38:58;;;;;;;0.70;0.70;;;21.50;47.30;;;;;;5111658;28;20027;-41
2023/12/30 07:41:24;;;;;;;0.87;0.60;;;21.40;47.30;;;;;;5116373;28;20373;-39
2023/12/30 07:43:50;;;;;;;1.42;0.90;;;21.40;47.30;;;;;;5113372;27;20044;-40
2023/12/30 07:46:16;;;;;;;0.80;0.57;;;21.50;47.40;;;;;;5106622;28;20038;-40
2023/12/30 07:48:43;;;;;;;0.80;0.70;;;21.60;47.30;;;;;;5118175;28;20039;-41
2023/12/30 07:51:10;;;;;;;0.70;0.70;;;21.60;47.20;;;;;;5114348;28;20133;-40
2023/12/30 07:53:36;;;;;;;3.15;0.70;;;21.50;47.20;;;;;;5099867;28;20036;-41
2023/12/30 07:56:03;;;;;;;0.70;0.70;;;21.50;47.30;;;;;;5114843;28;20060;-41
2023/12/30 07:58:29;;;;;;;0.98;0.80;;;21.50;47.40;;;;;;5107809;28;20034;-40
2023/12/30 08:00:55;;;;;;;0.60;0.60;;;21.50;47.20;;;;;;5115275;27;20028;-41
2023/12/30 08:03:21;;;;;;;0.70;0.57;;;21.50;47.10;;;;;;5108044;28;20134;-41
2023/12/30 08:05:47;;;;;;;0.93;0.70;;;21.50;47.20;;;;;;5112155;28;20726;-39
2023/12/30 08:08:13;;;;;;;2.08;0.60;;;21.50;47.30;;;;;;5116944;28;20055;-40
2023/12/30 08:10:40;;;;;;;0.93;0.80;;;21.40;47.40;;;;;;5105160;28;20074;-40
2023/12/30 08:13:06;;;;;;;0.60;0.60;;;21.30;47.30;;;;;;5113911;28;20036;-38
2023/12/30 08:15:32;;;;;;;0.70;0.55;;;21.40;47.40;;;;;;5117417;28;20452;-41
2023/12/30 08:17:58;;;;;;;0.60;0.50;;;21.50;47.40;;;;;;5110086;28;20032;-39
2023/12/30 08:20:25;;;;;;;2.05;0.73;;;21.60;47.20;;;;;;5113748;28;20098;-41
2023/12/30 08:22:51;;;;;;;0.60;0.60;;;21.60;47.10;;;;;;5118185;28;20597;-42
2023/12/30 08:25:17;;;;;;;0.77;0.70;;;21.50;47.30;;;;;;5114173;28;20027;-42
2023/12/30 08:27:43;;;;;;;1.00;0.70;;;21.40;47.30;;;;;;5115092;28;20024;-40
2023/12/30 08:30:09;;;;;;;0.93;0.68;;;21.40;47.50;;;;;;5110412;28;20032;-41
2023/12/30 08:32:36;;;;;;;1.35;0.80;;;21.40;47.40;;;;;;5113285;28;20080;-41
2023/12/30 08:35:07;;;;;;;1.23;0.55;;;21.50;47.40;;;;;;5111824;27;20031;-41
2023/12/30 08:37:34;;;;;;;1.95;0.60;;;21.50;47.30;;;;;;5113141;28;20027;-42
2023/12/30 08:40:00;;;;;;;1.95;0.68;;;21.50;47.40;;;;;;5114443;28;20038;-41
2023/12/30 08:42:34;;;;;;;1.42;0.60;;;21.40;47.40;;;;;;5107463;28;20035;-39
2023/12/30 08:45:00;;;;;;;1.52;0.63;;;21.40;47.50;;;;;;5114745;27;20039;-42
2023/12/30 08:47:28;;;;;;;0.40;0.40;;;21.50;47.50;;;;;;5105830;28;20024;-40
2023/12/30 08:49:54;;;;;;;0.85;0.60;;;21.60;47.30;;;;;;5110407;28;20299;-42
2023/12/30 08:52:21;;;;;;;1.33;0.50;;;21.60;47.30;;;;;;5106628;28;20055;-40
2023/12/30 08:54:47;;;;;;;0.80;0.60;;;21.50;47.30;;;;;;5112162;28;20028;-41
2023/12/30 08:57:13;;;;;;;0.70;0.50;;;21.50;47.40;;;;;;5118361;27;20088;-41
2023/12/30 08:59:40;;;;;;;0.85;0.50;;;21.40;47.40;;;;;;5111575;28;20031;-44
2023/12/30 09:02:06;;;;;;;1.02;0.60;;;21.50;47.30;;;;;;5119197;28;20039;-40
2023/12/30 09:04:32;;;;;;;1.35;0.70;;;21.50;47.20;;;;;;5118963;28;20492;-41
2023/12/30 09:06:58;;;;;;;0.73;0.60;;;21.40;47.30;;;;;;5113272;28;20051;-41
2023/12/30 09:09:24;;;;;;;0.68;0.60;;;21.40;47.40;;;;;;5117794;28;20033;-42
2023/12/30 09:11:51;;;;;;;0.70;0.60;;;21.30;47.50;;;;;;5112971;28;20140;-42
2023/12/30 09:14:17;;;;;;;0.50;0.50;;;21.30;47.50;;;;;;5112302;28;20275;-40
2023/12/30 09:16:43;;;;;;;0.60;0.52;;;21.40;47.50;;;;;;5113816;28;20783;-40
2023/12/30 09:19:09;;;;;;;0.63;0.47;;;21.50;47.40;;;;;;5119609;28;20063;-41
2023/12/30 09:21:35;;;;;;;1.20;0.65;;;21.50;47.30;;;;;;5110718;28;20612;-41
2023/12/30 09:24:02;;;;;;;0.65;0.65;;;21.50;47.30;;;;;;5117611;28;20036;-41
2023/12/30 09:26:28;;;;;;;0.80;0.60;;;21.40;47.30;;;;;;5111068;28;20027;-40
2023/12/30 09:28:54;;;;;;;0.70;0.60;;;21.40;47.50;;;;;;5109322;28;20028;-41
2023/12/30 09:31:23;;;;;;;0.65;0.50;;;21.40;47.30;;;;;;5116752;28;20035;-41
2023/12/30 09:33:50;;;;;;;0.55;0.50;;;21.40;47.10;;;;;;5114070;28;20064;-41
2023/12/30 09:36:17;;;;;;;0.63;0.60;;;21.40;47.30;;;;;;5105201;28;20036;-41
2023/12/30 09:38:44;;;;;;;0.60;0.50;;;21.30;47.30;;;;;;5110036;28;20035;-40
2023/12/30 09:41:10;;;;;;;1.85;0.50;;;21.30;47.40;;;;;;5116228;28;20072;-41
2023/12/30 09:43:36;;;;;;;0.65;0.50;;;21.20;47.40;;;;;;5117052;27;20044;-42
2023/12/30 09:46:02;;;;;;;0.40;0.32;;;21.30;47.50;;;;;;5092030;28;20024;-41
2023/12/30 09:48:28;;;;;;;0.80;0.50;;;21.40;47.30;;;;;;5115882;28;20034;-41
2023/12/30 09:50:55;;;;;;;0.50;0.40;;;21.50;47.10;;;;;;5084124;28;20066;-42
2023/12/30 09:53:24;;;;;;;0.70;0.43;;;21.50;47.30;;;;;;5103989;28;20031;-42
2023/12/30 09:55:51;;;;;;;0.75;0.50;;;21.40;47.30;;;;;;5115123;28;20039;-42
2023/12/30 09:58:18;;;;;;;1.00;0.60;;;21.30;47.30;;;;;;5094207;28;20544;-43
2023/12/30 10:00:44;;;;;;;0.40;0.40;;;21.30;47.30;;;;;;5113537;28;20400;-42
2023/12/30 10:03:10;;;;;;;0.45;0.30;;;21.30;47.10;;;;;;5118779;28;20031;-40
2023/12/30 10:05:36;;;;;;;0.50;0.50;;;21.30;47.10;;;;;;5111058;28;20457;-42
2023/12/30 10:08:06;;;;;;;0.45;0.30;;;21.30;47.30;;;;;;5103905;28;20028;-41
2023/12/30 10:10:51;;;;;;;1.27;0.40;;;21.30;47.40;;;;;;5113582;28;20055;-41
2023/12/30 10:13:21;;;;;;;0.60;0.60;;;21.20;47.30;;;;;;5113293;28;20053;-42
2023/12/30 10:15:47;;;;;;;0.43;0.40;;;21.30;47.40;;;;;;5108196;28;20052;-42
2023/12/30 10:18:15;;;;;;;0.40;0.40;;;21.40;47.40;;;;;;5107622;28;20032;-44
2023/12/30 10:20:45;;;;;;;1.08;0.50;;;21.40;47.10;;;;;;5108867;28;20035;-42
2023/12/30 10:23:11;;;;;;;0.43;0.43;;;21.40;47.20;;;;;;5117306;28;20052;-43
2023/12/30 10:25:37;;;;;;;0.30;0.30;;;21.40;47.30;;;;;;5110281;28;20036;-42
2023/12/30 10:28:03;;;;;;;0.32;0.30;;;21.30;47.30;;;;;;5113608;28;20038;-42
2023/12/30 10:30:30;;;;;;;0.30;0.30;;;21.20;47.40;;;;;;5110357;28;20047;-45
2023/12/30 10:33:13;;;;;;;0.80;0.55;;;21.20;47.40;;;;;;5109190;28;20279;-41
2023/12/30 10:35:40;;;;;;;4.55;0.90;;;21.30;47.50;;;;;;5113658;28;20031;-41
2023/12/30 10:38:12;;;;;;;3.03;0.80;;;21.30;47.60;;;;;;5120263;28;20057;-40
2023/12/30 10:40:39;;;;;;;4.43;0.60;;;21.30;47.60;;;;;;5111618;28;20928;-42
2023/12/30 10:43:06;;;;;;;4.40;0.88;;;21.20;47.60;;;;;;5110737;28;20043;-42
2023/12/30 10:45:32;;;;;;;;;;;21.20;47.60;;;;;;5114159;28;20115;-42
2023/12/30 10:47:59;;;;;;;1.75;0.47;;;21.30;47.60;;;;;;5116389;28;19919;-41
2023/12/30 10:50:26;;;;;;;2.78;0.60;;;21.40;47.30;;;;;;5115145;28;21736;-42
2023/12/30 10:53:08;;;;;;;1.50;0.30;;;21.50;47.20;;;;;;5110124;28;20051;-42
2023/12/30 10:55:35;;;;;;;1.48;0.50;;;21.40;47.30;;;;;;5102987;28;20087;-41
2023/12/30 10:58:11;;;;;;;2.28;0.57;;;21.30;47.40;;;;;;5091230;28;20036;-42
2023/12/30 11:00:38;;;;;;;1.65;0.50;;;21.30;47.30;;;;;;5080873;28;20019;-42
2023/12/30 11:03:04;;;;;;;0.53;0.47;;;21.20;47.50;;;;;;5122341;28;20050;-41
2023/12/30 11:06:04;;;;;;;0.40;0.40;;;21.20;47.30;;;;;;5119131;27;20031;-39
2023/12/30 11:08:31;;;;;;;0.40;0.38;;;21.30;47.20;;;;;;5109073;27;20590;-42
2023/12/30 11:11:02;;;;;;;1.13;0.40;;;21.20;47.40;;;;;;5116027;28;20032;-42
2023/12/30 11:13:35;;;;;;;1.00;0.50;;;21.20;47.50;;;;;;5113767;28;20031;-41
2023/12/30 11:16:17;;;;;;;2.55;0.47;;;21.10;47.40;;;;;;5111090;28;20024;-42
2023/12/30 11:18:47;;;;;;;0.35;0.30;;;21.20;47.50;;;;;;5110489;28;20032;-41
2023/12/30 11:21:32;;;;;;;1.05;0.32;;;21.40;47.30;;;;;;5114292;28;20051;-42
2023/12/30 11:24:02;;;;;;;1.33;0.45;;;21.40;47.00;;;;;;5102847;27;20772;-41
2023/12/30 11:26:31;;;;;;;0.88;0.47;;;21.40;47.00;;;;;;5095109;28;20057;-40
2023/12/30 11:29:04;;;;;;;2.45;0.30;;;21.40;47.10;;;;;;5118646;28;20032;-41
2023/12/30 11:31:31;;;;;;;0.30;0.30;;;21.40;47.10;;;;;;5118399;28;20039;-38
2023/12/30 11:36:43;;;;;;;0.20;0.20;;;21.40;47.10;;;;;;5109357;27;19919;-39
2023/12/30 11:39:10;;;;;;;0.50;0.30;;;21.40;47.00;;;;;;5113446;28;20028;-38
2023/12/30 11:41:36;;;;;;;;;;;21.40;47.00;;;;;;5119989;27;20028;-39
2023/12/30 11:44:03;;;;;;;0.52;0.30;;;21.40;46.90;;;;;;5114479;28;19941;-40
2023/12/30 11:46:30;;;;;;;0.30;0.30;;;21.40;46.90;;;;;;5118695;28;20027;-37
2023/12/30 11:48:56;;;;;;;0.40;0.30;;;21.40;47.00;;;;;;5116205;28;20036;-39
2023/12/30 11:51:32;;;;;;;0.20;0.20;;;21.40;46.90;;;;;;5115302;28;20040;-39
2023/12/30 11:54:03;;;;;;;0.50;0.30;;;21.50;46.90;;;;;;5106345;28;20299;-39
2023/12/30 11:56:29;;;;;;;1.20;0.50;;;21.50;46.80;;;;;;5115198;27;20084;-39
2023/12/30 11:58:57;;;;;;;2.03;0.27;;;21.60;46.90;;;;;;5107103;28;20024;-40
2023/12/30 12:01:23;;;;;;;0.22;0.20;;;21.60;46.70;;;;;;5120248;28;20504;-41
2023/12/30 12:03:49;;;;;;;0.60;0.20;;;21.50;46.80;;;;;;5106015;28;20056;-41
2023/12/30 12:06:15;;;;;;;0.10;0.10;;;21.50;46.80;;;;;;5108381;28;20024;-40
2023/12/30 12:08:41;;;;;;;0.20;0.20;;;21.60;46.70;;;;;;5116558;28;20039;-41
2023/12/30 12:11:07;;;;;;;0.10;0.10;;;21.60;46.60;;;;;;5118118;28;20230;-42
2023/12/30 12:13:34;;;;;;;0.20;0.17;;;21.60;46.60;;;;;;5111009;28;20038;-40
2023/12/30 12:16:00;;;;;;;0.10;0.10;;;21.60;46.60;;;;;;5119006;27;20027;-41
2023/12/30 12:18:26;;;;;;;0.20;0.20;;;21.50;46.60;;;;;;5118928;28;20027;-41
2023/12/30 12:20:52;;;;;;;0.50;0.35;;;21.50;46.60;;;;;;5114957;28;20027;-41
2023/12/30 12:23:22;;;;;;;0.10;0.10;;;21.60;46.60;;;;;;5111820;28;20099;-40
2023/12/30 12:25:48;;;;;;;0.20;0.20;;;21.60;46.50;;;;;;5115528;28;20020;-41
2023/12/30 12:28:17;;;;;;;1.33;0.20;;;21.60;46.60;;;;;;5101561;28;20031;-39
2023/12/30 12:30:46;;;;;;;1.67;0.20;;;21.60;46.50;;;;;;5110015;28;20524;-40
2023/12/30 12:33:13;;;;;;;0.20;0.20;;;21.60;46.70;;;;;;5108666;28;20035;-37
2023/12/30 12:35:39;;;;;;;0.15;0.10;;;21.50;46.90;;;;;;5104706;28;20032;-40
2023/12/30 12:38:05;;;;;;;0.20;0.20;;;21.60;46.90;;;;;;5109463;28;20032;-38
2023/12/30 12:40:34;;;;;;;0.30;0.30;;;21.60;46.50;;;;;;5120469;27;20076;-40
2023/12/30 12:43:01;;;;;;;1.50;0.25;;;21.60;46.60;;;;;;5091236;28;20051;-37
2023/12/30 12:45:27;;;;;;;0.17;0.17;;;21.60;46.60;;;;;;5094489;28;20135;-39
2023/12/30 12:47:53;;;;;;;0.10;0.10;;;21.60;46.60;;;;;;5107106;28;20023;-40
2023/12/30 12:50:19;;;;;;;0.30;0.20;;;21.60;46.70;;;;;;5091977;28;20044;-39